This is the latest recevied weather packets stored in our database for station/object EW2310. If no packets are shown the sender has not sent any weather packets the latest 10 day(s).
| Time | Temp. | Humidity | Pressure | Rain* | Wind** | Luminosity | Snow |
|---|---|---|---|---|---|---|---|
| 1777772443 | 13.33° C | 79% | 1019.3 hPa | 0 mm | - | 0 W/m² | - |
| 1777772143 | 13.33° C | 78% | 1019.3 hPa | 0 mm | - | 0 W/m² | - |
| 1777771243 | 13.33° C | 77% | 1019.4 hPa | 0 mm | - | 0 W/m² | - |
| 1777768243 | 13.89° C | 76% | 1019.8 hPa | 0 mm | - | 0 W/m² | - |
| 1777766146 | 13.89° C | 75% | 1020.1 hPa | 0 mm | - | 0 W/m² | - |
| 1777765543 | 13.33° C | 76% | 1020.2 hPa | 0 mm | - | 0 W/m² | - |
| 1777763446 | 13.89° C | 74% | 1020.5 hPa | 0 mm | - | 0 W/m² | - |
| 1777761643 | 13.89° C | 73% | 1020.8 hPa | 0 mm | - | 0 W/m² | - |
| 1777761343 | 13.89° C | 73% | 1020.8 hPa | 0 mm | - | 0 W/m² | - |
| 1777757746 | 13.89° C | 73% | 1020.8 hPa | 0 mm | - | 0 W/m² | - |
| 1777757446 | 13.89° C | 73% | 1020.9 hPa | 0 mm | - | 0 W/m² | - |
| 1777757143 | 13.89° C | 73% | 1020.9 hPa | 0 mm | - | 0 W/m² | - |
| 1777756543 | 13.89° C | 72% | 1020.9 hPa | 0 mm | - | 0 W/m² | - |
| 1777754743 | 14.44° C | 70% | 1020.9 hPa | 0 mm | - | 0 W/m² | - |
| 1777751443 | 15.56° C | 68% | 1020.9 hPa | 0 mm | - | 0 W/m² | - |
| 1777749943 | 16.11° C | 66% | 1020.7 hPa | 0 mm | - | 0 W/m² | - |
| 1777743343 | 17.22° C | 61% | 1019.6 hPa | 0 mm | - | 21 W/m² | - |
| 1777743046 | 17.22° C | 60% | 1019.6 hPa | 0 mm | - | 23 W/m² | - |
| 1777742143 | 17.22° C | 58% | 1019.6 hPa | 0 mm | - | 28 W/m² | - |
| 1777741543 | 17.78° C | 58% | 1019.6 hPa | 0 mm | - | 100 W/m² | - |
| 1777741243 | 17.78° C | 58% | 1019.6 hPa | 0 mm | - | 116 W/m² | - |
| 1777737943 | 18.89° C | 54% | 1019.4 hPa | 0 mm | - | 313 W/m² | - |
| 1777735243 | 20° C | 45% | 1019.5 hPa | 0 mm | - | 459 W/m² | - |
| 1777733743 | 20° C | 42% | 1019.6 hPa | 0 mm | - | 536 W/m² | - |
| 1777732543 | 20° C | 43% | 1019.6 hPa | 0 mm | - | 596 W/m² | - |
* Rain latest hour (hover to see other rain measurements)
** Current wind speed in m/s (hover to see current wind gust speed)